Airfield :
LOGIN :

Register | Disclaimer

   EN    FR    IT 

 










Legend :    VFR   Marginal VFR   IFR   Intensive IFR   Very Intensive IFR
Visi :
Ceiling :
>= 8 km
>= 3000ft
5 to 8 km
1000 to 3000 ft
1500m to 5 km
500 to 1000 ft
800 to 1500m
200 to 500 ft
< 800m
< 200 ft
Symbols :   Thunderstorms  Fog  Heavy snow  Heavy precipitations  Wind > 20 kt
SIGMETs :     Misc.  Thunderstorms  Icing  Turbulence  Mountain Waves  Volcanic Ashes






- Airport Elevation : 135 ft
- IATA code : EDI


EGPH - Edinburgh

CURRENT METAR :
  • 270650Z VRB01KT 4400 BR OVC003 02/02 Q1007

EXPIRED METARs :
  • 270620Z VRB01KT 4500 BR OVC003 02/02 Q1007
  • 270550Z 24002KT 3200 BR OVC003 02/02 Q1006
  • 270520Z 27002KT 4500 BR OVC004 02/02 Q1006
  • 270450Z 25003KT 6000 OVC004 02/02 Q1006
  • 270420Z 23004KT 4500 BR OVC003 02/02 Q1006

TAF TAF EGPH
Valid from the 27 at 06:00 until the 28 at 06:00 UTC


270455Z 2706/2806 VRB04KT 6000 SCT006 BKN010
TEMPO 2706/2712 3000 BR BKN006
PROB40
TEMPO 2706/2710 1200 -DZ BKN002
BECMG 2709/2712 9999 SCT020
BECMG 2712/2715 06010KT
PROB30
TEMPO 2712/2716 7000 BKN012
ATIS : +44 131 339 2823



MET'MAP, your aeronautical weather chart ! - Copyright ORBIFLY December 2007 - Disclaimer

ORBIFLY MET'MAP TEAM :

Programming & Development : Alexandra Zaïnal
Concept & original design : Baudouin d'Aumeries
Assistance for programming : Marc-Olivier Méhu
Technical & hardware support : Manuel Goepfert

Contact : metmap@orbifly.com




SOURCES & CREDITS :

   NOAA